Time;durP1;ratioP1;P1;durP2;ratioP2;P2;SDS_P1;SDS_P2;PMS_P1;PMS_P2;Temp;Humidity;BMP_temperature;BMP_pressure;BME280_temperature;BME280_humidity;BME280_pressure;Samples;Min_cycle;Max_cycle;Signal;HPM_P1;HPM_P2
2021/10/01 00:00:28;;;;;;;6.20;2.55;;;9.00;99.90;;;;;;5070167;28;20076;-68
2021/10/01 00:02:55;;;;;;;6.03;2.60;;;9.00;99.90;;;;;;5069661;28;20047;-68
2021/10/01 00:05:23;;;;;;;8.63;2.70;;;8.90;99.90;;;;;;5066971;28;20040;-68
2021/10/01 00:07:51;;;;;;;4.38;2.35;;;8.90;99.90;;;;;;5067487;28;20045;-68
2021/10/01 00:10:18;;;;;;;6.05;2.60;;;9.00;99.90;;;;;;5075043;28;20048;-68
2021/10/01 00:12:45;;;;;;;5.28;2.53;;;8.90;99.90;;;;;;5075868;28;20044;-68
2021/10/01 00:15:13;;;;;;;6.28;2.85;;;8.90;99.90;;;;;;5079055;28;20379;-68
2021/10/01 00:17:40;;;;;;;4.85;2.63;;;8.90;99.90;;;;;;5074382;28;20045;-68
2021/10/01 00:20:09;;;;;;;6.47;2.58;;;8.90;99.90;;;;;;5087780;28;20490;-68
2021/10/01 00:22:36;;;;;;;5.18;2.50;;;8.80;99.90;;;;;;5087096;28;20040;-68
2021/10/01 00:25:04;;;;;;;5.13;2.78;;;8.80;99.90;;;;;;5073129;28;20048;-68
2021/10/01 00:27:32;;;;;;;5.97;2.40;;;8.80;99.90;;;;;;5079376;28;20071;-68
2021/10/01 00:29:59;;;;;;;4.07;2.38;;;8.70;99.90;;;;;;5058255;28;20045;-68
2021/10/01 00:32:26;;;;;;;8.27;4.47;;;8.70;99.90;;;;;;5081646;28;20051;-68
2021/10/01 00:34:54;;;;;;;9.20;5.10;;;8.70;99.90;;;;;;5079029;28;20062;-68
2021/10/01 00:37:21;;;;;;;6.10;3.70;;;8.70;99.90;;;;;;5075144;28;20059;-68
2021/10/01 00:39:48;;;;;;;5.18;2.97;;;8.60;99.90;;;;;;5080160;28;20044;-68
2021/10/01 00:42:16;;;;;;;4.95;2.60;;;8.60;99.90;;;;;;5057790;28;20443;-68
2021/10/01 00:44:43;;;;;;;4.38;2.42;;;8.50;99.90;;;;;;5075461;28;20044;-68
2021/10/01 00:47:10;;;;;;;5.03;2.63;;;8.50;99.90;;;;;;5075566;28;20040;-68
2021/10/01 00:49:38;;;;;;;6.22;2.80;;;8.50;99.90;;;;;;5078857;28;20033;-68
2021/10/01 00:52:06;;;;;;;5.63;2.60;;;8.50;99.90;;;;;;5054355;28;20072;-68
2021/10/01 00:54:35;;;;;;;6.22;2.65;;;8.50;99.90;;;;;;5069053;28;20036;-68
2021/10/01 00:57:04;;;;;;;10.15;2.90;;;8.50;99.90;;;;;;5070496;28;20040;-68
2021/10/01 00:59:31;;;;;;;5.60;2.72;;;8.50;99.90;;;;;;5083448;28;20035;-68
2021/10/01 01:01:59;;;;;;;5.03;2.42;;;8.50;99.90;;;;;;5062000;28;20087;-68
2021/10/01 01:04:26;;;;;;;5.43;2.25;;;8.50;99.90;;;;;;5088573;28;20040;-68
2021/10/01 01:06:55;;;;;;;4.47;2.28;;;8.50;99.90;;;;;;5079157;28;20151;-68
2021/10/01 01:09:31;;;;;;;3.88;2.42;;;8.40;99.90;;;;;;5061379;28;20055;-68
2021/10/01 01:12:25;;;;;;;4.85;2.40;;;8.40;99.90;;;;;;5065931;28;20044;-68
2021/10/01 01:15:21;;;;;;;3.85;2.10;;;8.40;99.90;;;;;;5071421;28;20475;-68
2021/10/01 01:18:02;;;;;;;6.60;2.35;;;8.40;99.90;;;;;;5076748;28;20131;-68
2021/10/01 01:20:51;;;;;;;4.30;2.20;;;8.40;99.90;;;;;;5057475;28;20048;-68
2021/10/01 01:23:40;;;;;;;5.10;2.00;;;8.40;99.90;;;;;;5075419;28;20650;-68
2021/10/01 01:26:36;;;;;;;8.55;2.20;;;8.40;99.90;;;;;;5071312;28;20045;-68
2021/10/01 01:29:29;;;;;;;4.22;2.20;;;8.40;99.90;;;;;;5037559;28;20049;-68
2021/10/01 01:31:56;;;;;;;5.20;2.55;;;8.40;99.90;;;;;;5053141;28;20154;-68
2021/10/01 01:34:37;;;;;;;5.57;2.50;;;8.40;99.90;;;;;;5071544;28;20044;-68
2021/10/01 01:37:18;;;;;;;6.18;2.45;;;8.40;99.90;;;;;;5098872;28;20040;-68
2021/10/01 01:39:48;;;;;;;5.18;2.30;;;8.40;99.90;;;;;;5080664;28;20036;-68
2021/10/01 01:42:16;;;;;;;7.20;2.42;;;8.40;99.90;;;;;;5069671;28;20039;-68
2021/10/01 01:44:46;;;;;;;4.95;2.30;;;8.40;99.90;;;;;;5055771;28;20484;-68
2021/10/01 01:47:14;;;;;;;4.03;2.10;;;8.40;99.90;;;;;;5072490;28;20498;-68
2021/10/01 01:49:44;;;;;;;5.65;2.28;;;8.30;99.90;;;;;;5066162;28;20040;-68
2021/10/01 01:52:14;;;;;;;4.93;2.33;;;8.30;99.90;;;;;;5088402;28;20041;-68
2021/10/01 01:54:43;;;;;;;5.15;2.45;;;8.20;99.90;;;;;;5052003;28;20052;-68
2021/10/01 01:57:10;;;;;;;5.78;2.40;;;8.20;99.90;;;;;;5087651;28;20048;-68
2021/10/01 01:59:39;;;;;;;4.85;2.25;;;8.10;99.90;;;;;;5069912;28;20498;-68
2021/10/01 02:02:07;;;;;;;4.93;2.28;;;8.10;99.90;;;;;;5058572;28;20515;-68
2021/10/01 02:04:36;;;;;;;8.60;2.25;;;8.10;99.90;;;;;;5073863;28;20110;-68
2021/10/01 02:07:05;;;;;;;5.70;2.03;;;8.10;99.90;;;;;;5069839;28;20056;-68
2021/10/01 02:09:34;;;;;;;7.35;2.28;;;8.10;99.90;;;;;;5070667;28;20151;-68
2021/10/01 02:12:02;;;;;;;7.55;2.28;;;8.10;99.90;;;;;;5036537;28;20525;-68
2021/10/01 02:14:35;;;;;;;3.80;2.17;;;8.10;99.90;;;;;;5070157;28;20517;-68
2021/10/01 02:17:03;;;;;;;;;;;8.10;99.90;;;;;;5073367;28;20320;-68
2021/10/01 02:19:34;;;;;;;4.22;2.22;;;8.00;99.90;;;;;;5057259;28;19931;-68
2021/10/01 02:22:04;;;;;;;3.80;2.10;;;8.00;99.90;;;;;;5066067;28;20040;-68
2021/10/01 02:24:33;;;;;;;5.55;2.17;;;8.00;99.90;;;;;;5072423;28;20044;-68
2021/10/01 02:27:23;;;;;;;4.60;2.25;;;8.00;99.90;;;;;;5070820;28;20040;-68
2021/10/01 02:30:15;;;;;;;6.50;2.25;;;8.00;99.90;;;;;;5050221;28;20578;-68
2021/10/01 02:32:48;;;;;;;4.75;2.30;;;8.00;99.90;;;;;;5054388;28;20513;-68
2021/10/01 02:35:15;;;;;;;4.65;2.25;;;8.00;99.90;;;;;;5070500;28;20681;-68
2021/10/01 02:37:44;;;;;;;7.30;2.25;;;8.00;99.90;;;;;;5070423;28;20051;-68
2021/10/01 02:40:15;;;;;;;3.72;2.15;;;8.00;99.90;;;;;;5055493;28;20456;-68
2021/10/01 02:42:42;;;;;;;5.00;2.33;;;8.00;99.90;;;;;;5065091;28;20047;-68
2021/10/01 02:45:11;;;;;;;3.83;2.35;;;8.00;99.90;;;;;;5074414;28;20047;-68
2021/10/01 02:47:40;;;;;;;5.45;2.45;;;8.00;99.90;;;;;;5080948;28;20491;-68
2021/10/01 02:50:17;;;;;;;4.32;2.13;;;8.00;99.90;;;;;;5071207;28;20548;-68
2021/10/01 02:53:06;;;;;;;4.97;2.60;;;8.00;99.90;;;;;;5066570;28;20113;-68
2021/10/01 02:55:58;;;;;;;3.63;2.20;;;8.00;99.90;;;;;;5068356;28;20040;-68
2021/10/01 02:58:33;;;;;;;4.18;2.75;;;7.90;99.90;;;;;;5035778;28;20411;-68
2021/10/01 03:01:05;;;;;;;5.10;2.50;;;7.90;99.90;;;;;;5044645;28;20566;-68
2021/10/01 03:03:47;;;;;;;4.47;2.33;;;7.90;99.90;;;;;;5068348;28;20098;-68
2021/10/01 03:06:19;;;;;;;4.20;2.50;;;7.90;99.90;;;;;;5069042;28;20040;-68
2021/10/01 03:08:50;;;;;;;6.45;2.92;;;7.90;99.90;;;;;;5048863;28;20052;-68
2021/10/01 03:11:20;;;;;;;6.10;2.57;;;7.80;99.90;;;;;;5067515;28;20427;-68
2021/10/01 03:13:51;;;;;;;5.50;2.63;;;7.80;99.90;;;;;;5071718;28;20041;-68
2021/10/01 03:16:20;;;;;;;4.75;2.47;;;7.80;99.90;;;;;;5070532;28;20044;-68
2021/10/01 03:18:51;;;;;;;5.20;2.40;;;7.80;99.90;;;;;;5050952;28;20474;-68
2021/10/01 03:21:21;;;;;;;5.32;2.88;;;7.70;99.90;;;;;;5065139;28;20044;-68
2021/10/01 03:23:49;;;;;;;4.85;2.70;;;7.70;99.90;;;;;;5051842;28;20445;-68
2021/10/01 03:26:18;;;;;;;5.38;2.95;;;7.60;99.90;;;;;;5060472;28;20049;-68
2021/10/01 03:28:46;;;;;;;6.57;3.00;;;7.70;99.90;;;;;;5068085;28;20071;-68
2021/10/01 03:31:14;;;;;;;5.63;2.83;;;7.60;99.90;;;;;;5061918;28;20041;-68
2021/10/01 03:33:45;;;;;;;8.60;3.17;;;7.60;99.90;;;;;;5057914;28;20048;-68
2021/10/01 03:36:13;;;;;;;6.88;2.97;;;7.60;99.90;;;;;;5060419;28;20099;-68
2021/10/01 03:38:47;;;;;;;4.85;2.60;;;7.60;99.90;;;;;;5075230;28;20044;-68
2021/10/01 03:41:15;;;;;;;3.90;2.37;;;7.50;99.90;;;;;;5073578;28;20033;-68
2021/10/01 03:43:43;;;;;;;4.18;2.40;;;7.50;99.90;;;;;;5038392;28;20303;-68
2021/10/01 03:46:11;;;;;;;6.05;2.65;;;7.50;99.90;;;;;;5089550;28;20526;-68
2021/10/01 03:48:38;;;;;;;5.60;3.05;;;7.50;99.90;;;;;;5061117;28;20052;-68
2021/10/01 03:51:07;;;;;;;5.18;2.75;;;7.50;99.90;;;;;;5076053;28;20044;-68
2021/10/01 03:53:37;;;;;;;5.80;2.63;;;7.40;99.90;;;;;;5044378;28;20471;-68
2021/10/01 03:56:09;;;;;;;6.60;2.75;;;7.40;99.90;;;;;;5090054;28;20143;-68
2021/10/01 03:58:37;;;;;;;6.60;2.97;;;7.40;99.90;;;;;;5072738;28;20524;-68
2021/10/01 04:01:04;;;;;;;8.77;3.30;;;7.40;99.90;;;;;;5082308;28;20064;-68
2021/10/01 04:03:33;;;;;;;5.55;3.10;;;7.30;99.90;;;;;;5088456;28;20067;-68
2021/10/01 04:06:01;;;;;;;6.50;3.60;;;7.40;99.90;;;;;;5074476;28;20045;-68
2021/10/01 04:08:28;;;;;;;7.78;4.80;;;7.30;99.90;;;;;;5077367;28;20051;-68
2021/10/01 04:10:56;;;;;;;7.32;4.25;;;7.30;99.90;;;;;;5089252;28;20044;-68
2021/10/01 04:13:24;;;;;;;8.38;4.03;;;7.40;99.90;;;;;;5065353;28;20087;-68
2021/10/01 04:15:52;;;;;;;7.75;3.70;;;7.30;99.90;;;;;;5076054;28;20037;-68
2021/10/01 04:18:23;;;;;;;6.50;4.05;;;7.30;99.90;;;;;;5070225;28;20419;-68
2021/10/01 04:20:51;;;;;;;7.10;3.45;;;7.40;99.90;;;;;;5071190;28;20112;-68
2021/10/01 04:23:20;;;;;;;10.05;4.07;;;7.40;99.90;;;;;;5082745;28;20055;-68
2021/10/01 04:25:47;;;;;;;6.53;3.40;;;7.40;99.90;;;;;;5066399;28;20040;-68
2021/10/01 04:28:17;;;;;;;5.90;3.17;;;7.30;99.90;;;;;;5039273;28;20048;-68
2021/10/01 04:30:50;;;;;;;4.90;2.75;;;7.40;99.90;;;;;;5076778;28;20052;-68
2021/10/01 04:33:23;;;;;;;6.50;3.83;;;7.30;99.90;;;;;;5057171;28;20044;-68
2021/10/01 04:35:54;;;;;;;5.60;3.15;;;7.30;99.90;;;;;;5050931;28;20069;-68
2021/10/01 04:38:22;;;;;;;7.45;3.08;;;7.30;99.90;;;;;;5068535;28;20047;-68
2021/10/01 04:40:50;;;;;;;5.38;2.80;;;7.30;99.90;;;;;;5054132;28;20111;-68
2021/10/01 04:43:18;;;;;;;6.78;3.40;;;7.30;99.90;;;;;;5083180;28;20036;-68
2021/10/01 04:46:09;;;;;;;5.53;2.97;;;7.30;99.90;;;;;;5084552;28;20083;-68
2021/10/01 04:48:37;;;;;;;5.60;3.10;;;7.20;99.90;;;;;;5086751;28;20095;-68
2021/10/01 04:51:07;;;;;;;6.90;3.10;;;7.20;99.90;;;;;;5086793;28;20140;-68
2021/10/01 04:53:35;;;;;;;6.75;3.40;;;7.20;99.90;;;;;;5088947;28;20052;-68
2021/10/01 04:56:03;;;;;;;5.53;2.88;;;7.20;99.90;;;;;;5087606;28;20099;-68
2021/10/01 04:58:30;;;;;;;6.00;3.40;;;7.20;99.90;;;;;;5083695;28;20056;-68
2021/10/01 05:01:04;;;;;;;4.78;2.90;;;7.20;99.90;;;;;;5089134;28;20509;-68
2021/10/01 05:03:50;;;;;;;5.95;3.28;;;7.20;99.90;;;;;;5088885;28;20395;-68
2021/10/01 05:06:50;;;;;;;7.97;3.17;;;7.20;99.90;;;;;;5059167;28;20044;-68
2021/10/01 05:09:36;;;;;;;5.45;3.08;;;7.10;99.90;;;;;;5068652;28;20437;-67
2021/10/01 05:12:19;;;;;;;9.68;3.10;;;7.10;99.90;;;;;;5051441;28;20427;-67
2021/10/01 05:15:06;;;;;;;8.32;3.88;;;7.10;99.90;;;;;;5068690;28;20052;-67
2021/10/01 05:18:13;;;;;;;6.07;3.88;;;7.10;99.90;;;;;;5019750;28;20050;-67
2021/10/01 05:20:50;;;;;;;6.20;4.03;;;7.10;99.90;;;;;;4987294;28;20424;-67
2021/10/01 05:23:39;;;;;;;7.80;3.53;;;7.20;99.90;;;;;;4968253;28;20046;-66
2021/10/01 05:26:07;;;;;;;6.50;3.65;;;7.20;99.90;;;;;;4986499;28;20053;-67
2021/10/01 05:28:35;;;;;;;6.50;3.75;;;7.30;99.90;;;;;;4985952;28;20520;-67
2021/10/01 05:31:02;;;;;;;7.90;4.00;;;7.20;99.90;;;;;;4994730;28;20046;-67
2021/10/01 05:33:30;;;;;;;6.72;3.83;;;7.30;99.90;;;;;;4998165;28;20154;-67
2021/10/01 05:35:57;;;;;;;8.48;3.72;;;7.30;99.90;;;;;;4996725;28;20517;-67
2021/10/01 05:38:25;;;;;;;10.35;3.38;;;7.30;99.90;;;;;;4996707;28;20052;-67
2021/10/01 05:40:53;;;;;;;7.47;3.40;;;7.40;99.90;;;;;;4979428;28;20121;-67
2021/10/01 05:43:26;;;;;;;9.00;4.40;;;7.40;99.90;;;;;;5006133;28;20470;-67
2021/10/01 05:45:57;;;;;;;6.38;3.50;;;7.40;99.90;;;;;;4997162;28;20083;-66
2021/10/01 05:48:47;;;;;;;6.97;3.90;;;7.50;99.90;;;;;;5018071;28;20052;-66
2021/10/01 05:51:33;;;;;;;6.95;3.47;;;7.50;99.90;;;;;;5027020;28;20044;-68
2021/10/01 05:54:23;;;;;;;8.48;3.55;;;7.60;99.90;;;;;;5054534;28;20039;-68
2021/10/01 05:57:10;;;;;;;5.90;3.22;;;7.60;99.90;;;;;;5069604;28;20537;-67
2021/10/01 05:59:45;;;;;;;9.95;5.55;;;7.70;99.90;;;;;;5047902;28;20052;-67
2021/10/01 06:02:19;;;;;;;18.17;8.85;;;7.80;99.90;;;;;;5069365;28;20068;-67
2021/10/01 06:04:52;;;;;;;12.38;6.10;;;7.90;99.90;;;;;;5070660;28;20059;-67
2021/10/01 06:07:20;;;;;;;6.90;3.95;;;8.00;99.90;;;;;;5074901;28;20041;-66
2021/10/01 06:09:48;;;;;;;6.82;3.45;;;8.10;99.90;;;;;;5059026;28;20139;-67
2021/10/01 06:12:16;;;;;;;6.57;3.33;;;8.20;99.90;;;;;;5079094;28;20054;-66
2021/10/01 06:14:44;;;;;;;12.25;7.07;;;8.30;99.90;;;;;;5074244;28;20049;-67
2021/10/01 06:17:13;;;;;;;11.68;6.28;;;8.50;99.90;;;;;;5062781;28;20053;-68
2021/10/01 06:19:42;;;;;;;15.63;6.00;;;8.60;99.90;;;;;;5057906;28;20033;-67
2021/10/01 06:22:11;;;;;;;12.40;5.07;;;8.70;99.90;;;;;;5070887;28;20052;-68
2021/10/01 06:24:39;;;;;;;12.75;5.15;;;8.80;99.90;;;;;;5069028;28;20522;-67
2021/10/01 06:27:07;;;;;;;12.15;5.43;;;8.90;99.90;;;;;;5068641;28;20045;-67
2021/10/01 06:29:35;;;;;;;15.82;7.45;;;9.10;99.90;;;;;;5068236;28;20863;-67
2021/10/01 06:32:03;;;;;;;10.32;6.18;;;9.20;99.90;;;;;;5075755;28;20044;-67
2021/10/01 06:34:30;;;;;;;12.13;5.43;;;9.40;99.90;;;;;;5072656;28;20430;-67
2021/10/01 06:36:58;;;;;;;11.18;6.75;;;9.50;99.90;;;;;;5075814;28;20082;-67
2021/10/01 06:39:25;;;;;;;12.48;5.00;;;9.60;99.90;;;;;;5072771;28;20047;-67
2021/10/01 06:41:52;;;;;;;13.35;6.05;;;9.80;99.90;;;;;;5071970;28;20483;-67
2021/10/01 06:44:25;;;;;;;11.15;5.90;;;9.90;99.90;;;;;;5056410;28;20082;-67
2021/10/01 06:47:06;;;;;;;12.38;4.55;;;10.00;99.90;;;;;;5070096;28;20047;-67
2021/10/01 07:23:10;;;;;;;5.70;3.33;;;11.10;99.90;;;;;;5071185;28;20067;-67
2021/10/01 07:34:29;;;;;;;9.38;5.32;;;11.30;99.90;;;;;;5066947;28;20047;-67
2021/10/01 08:20:16;;;;;;;13.25;6.10;;;13.50;99.90;;;;;;5053712;28;20076;-67
2021/10/01 08:22:43;;;;;;;13.50;8.05;;;13.60;99.90;;;;;;5068781;28;20045;-67
2021/10/01 08:25:11;;;;;;;8.65;4.50;;;13.60;99.90;;;;;;5069604;28;20097;-68
2021/10/01 08:27:40;;;;;;;6.38;3.35;;;13.80;99.90;;;;;;5068009;28;20036;-68
2021/10/01 08:30:09;;;;;;;5.60;2.83;;;13.90;99.90;;;;;;5072209;28;20055;-67
2021/10/01 08:32:37;;;;;;;5.78;2.60;;;14.00;99.90;;;;;;5068023;28;20123;-67
2021/10/01 08:35:06;;;;;;;7.38;2.47;;;14.10;99.90;;;;;;5070226;28;20041;-68
2021/10/01 08:37:33;;;;;;;4.85;2.45;;;14.20;99.90;;;;;;5065796;28;20044;-67
2021/10/01 08:40:02;;;;;;;9.55;2.63;;;14.30;99.90;;;;;;5070203;28;20049;-67
2021/10/01 08:42:57;;;;;;;8.85;2.63;;;14.40;99.90;;;;;;5069400;28;20052;-67
2021/10/01 08:45:27;;;;;;;8.82;2.30;;;14.50;99.90;;;;;;5066889;28;20083;-67
2021/10/01 08:47:57;;;;;;;6.00;2.60;;;14.60;99.90;;;;;;5049408;28;20476;-68
2021/10/01 08:50:27;;;;;;;5.18;1.90;;;14.80;99.90;;;;;;5077313;28;20118;-68
2021/10/01 08:52:59;;;;;;;8.00;4.75;;;14.90;99.90;;;;;;5066011;28;20040;-68
2021/10/01 08:55:29;;;;;;;;;;;15.00;99.90;;;;;;5073929;28;20040;-68
2021/10/01 08:57:56;;;;;;;7.25;2.40;;;15.20;99.90;;;;;;5080202;28;19970;-67
2021/10/01 09:00:24;;;;;;;6.25;2.25;;;15.40;99.90;;;;;;5086348;28;20193;-67
2021/10/01 09:02:51;;;;;;;8.65;2.67;;;15.60;99.90;;;;;;5085327;28;20098;-67
2021/10/01 09:05:19;;;;;;;6.47;2.28;;;15.70;99.90;;;;;;5082890;28;20044;-67
2021/10/01 09:07:47;;;;;;;4.10;1.75;;;15.80;99.90;;;;;;5082594;28;20047;-67
2021/10/01 09:10:15;;;;;;;5.25;1.85;;;16.00;99.90;;;;;;5085063;28;20044;-67
2021/10/01 09:12:53;;;;;;;4.25;1.45;;;16.00;99.90;;;;;;5083266;28;20078;-67
2021/10/01 09:15:21;;;;;;;5.18;2.00;;;16.00;99.90;;;;;;5062000;28;20491;-67
2021/10/01 09:17:57;;;;;;;5.18;1.80;;;16.00;99.90;;;;;;5055255;28;20458;-67
2021/10/01 09:20:25;;;;;;;6.93;2.22;;;16.20;99.90;;;;;;5077287;28;20042;-67
2021/10/01 09:23:27;;;;;;;5.63;1.88;;;16.20;99.90;;;;;;5068963;28;20044;-67
2021/10/01 09:26:28;;;;;;;6.43;2.78;;;16.40;99.90;;;;;;5051058;28;20068;-67
2021/10/01 09:29:01;;;;;;;3.55;1.63;;;16.60;99.90;;;;;;5051202;28;20056;-68
2021/10/01 09:31:43;;;;;;;3.92;1.27;;;16.70;99.90;;;;;;5072987;28;20056;-68
2021/10/01 09:34:24;;;;;;;5.18;2.53;;;16.90;99.90;;;;;;5072770;28;20472;-67
2021/10/01 09:37:14;;;;;;;5.80;2.88;;;17.10;99.90;;;;;;5052489;28;20086;-68
2021/10/01 09:39:45;;;;;;;4.95;2.20;;;17.20;99.90;;;;;;5070647;28;20131;-67
2021/10/01 09:42:19;;;;;;;4.80;1.73;;;17.30;99.90;;;;;;5075554;28;20119;-67
2021/10/01 09:44:57;;;;;;;5.90;2.30;;;17.40;99.90;;;;;;5073142;28;20040;-67
2021/10/01 09:47:32;;;;;;;3.67;1.17;;;17.50;99.90;;;;;;5077391;28;20043;-67
2021/10/01 09:50:06;;;;;;;4.47;1.55;;;17.50;99.90;;;;;;5072615;28;20048;-67
2021/10/01 09:53:06;;;;;;;3.22;1.30;;;17.60;99.90;;;;;;5062502;28;20479;-67
2021/10/01 09:55:39;;;;;;;4.28;1.88;;;17.70;99.90;;;;;;5080167;28;20048;-67
2021/10/01 09:58:14;;;;;;;4.38;2.10;;;17.70;99.90;;;;;;5071051;28;20390;-68
2021/10/01 10:00:47;;;;;;;4.55;1.73;;;17.90;99.90;;;;;;5064629;28;20407;-67
2021/10/01 10:03:31;;;;;;;6.28;1.38;;;18.00;99.90;;;;;;5083508;28;20525;-67
2021/10/01 10:06:06;;;;;;;12.60;4.55;;;18.20;99.90;;;;;;5074138;28;20033;-67
2021/10/01 10:08:35;;;;;;;5.72;1.58;;;18.40;99.90;;;;;;5075808;28;20040;-68
2021/10/01 10:11:12;;;;;;;4.82;1.17;;;18.50;99.90;;;;;;5076525;28;20052;-67
2021/10/01 10:13:46;;;;;;;4.93;1.40;;;18.60;99.90;;;;;;5073776;28;20118;-67
2021/10/01 10:16:15;;;;;;;4.85;1.55;;;18.70;99.90;;;;;;5073249;28;20055;-67
2021/10/01 10:18:43;;;;;;;3.58;1.17;;;18.90;99.90;;;;;;5070024;28;20048;-67
2021/10/01 10:21:12;;;;;;;4.38;1.38;;;19.10;99.90;;;;;;5072648;28;20068;-67
2021/10/01 10:23:40;;;;;;;2.95;1.20;;;19.20;99.90;;;;;;5072236;28;20041;-68
2021/10/01 10:26:07;;;;;;;3.08;1.23;;;19.20;99.90;;;;;;5063927;28;20714;-67
2021/10/01 10:28:38;;;;;;;4.60;2.25;;;19.40;99.90;;;;;;5052444;28;20154;-67
2021/10/01 10:31:08;;;;;;;7.53;2.38;;;19.50;99.90;;;;;;5071725;28;20055;-67
2021/10/01 10:33:43;;;;;;;4.90;2.30;;;19.70;99.90;;;;;;5055957;28;20071;-68
2021/10/01 10:36:41;;;;;;;5.45;3.13;;;20.00;99.90;;;;;;5061454;28;20056;-67
2021/10/01 10:39:19;;;;;;;2.72;1.20;;;20.00;99.90;;;;;;5067740;28;20040;-67
2021/10/01 10:42:08;;;;;;;4.53;1.45;;;20.00;99.90;;;;;;5084336;28;20048;-67
2021/10/01 10:44:50;;;;;;;3.92;1.08;;;19.90;99.90;;;;;;5065055;28;20388;-68
2021/10/01 10:47:43;;;;;;;4.35;1.20;;;20.10;99.90;;;;;;5079060;28;20040;-68
2021/10/01 10:50:24;;;;;;;5.93;2.40;;;20.40;99.90;;;;;;5075084;28;20083;-68
2021/10/01 10:53:11;;;;;;;2.83;1.48;;;20.40;99.90;;;;;;5067755;28;20303;-68
2021/10/01 10:55:49;;;;;;;3.40;1.13;;;20.40;99.90;;;;;;5070142;28;20045;-68
2021/10/01 11:00:55;;;;;;;3.03;1.27;;;20.60;99.90;;;;;;5071150;28;20071;-68
2021/10/01 11:03:28;;;;;;;2.85;1.20;;;20.80;99.90;;;;;;5054702;28;20049;-68
2021/10/01 11:06:10;;;;;;;4.82;1.02;;;20.90;99.90;;;;;;5058041;28;20073;-68
2021/10/01 11:08:40;;;;;;;6.15;1.55;;;21.30;99.90;;;;;;5065373;28;20048;-68
2021/10/01 11:11:29;;;;;;;2.40;0.98;;;21.60;99.90;;;;;;5063770;28;20049;-68
2021/10/01 11:14:24;;;;;;;2.55;0.90;;;21.70;99.90;;;;;;5053342;28;20076;-68
2021/10/01 11:16:51;;;;;;;3.30;0.90;;;21.80;99.90;;;;;;5066539;28;20491;-68
2021/10/01 11:19:39;;;;;;;3.10;1.10;;;21.80;99.90;;;;;;5070419;28;20822;-68
2021/10/01 11:22:30;;;;;;;3.65;1.67;;;22.00;99.90;;;;;;5069016;28;20047;-68
2021/10/01 11:24:58;;;;;;;3.28;1.13;;;22.20;99.90;;;;;;5072825;28;20414;-68
2021/10/01 11:27:26;;;;;;;3.78;1.00;;;22.40;99.90;;;;;;5069011;28;20041;-67
2021/10/01 11:29:53;;;;;;;3.20;0.80;;;22.60;99.90;;;;;;5070809;28;20044;-68
2021/10/01 11:32:23;;;;;;;1.58;0.90;;;22.80;99.90;;;;;;5058582;28;20040;-68
2021/10/01 11:34:59;;;;;;;5.18;0.95;;;23.10;99.90;;;;;;5059258;28;20512;-67
2021/10/01 11:37:36;;;;;;;2.08;0.90;;;23.40;99.90;;;;;;5069842;28;20037;-67
2021/10/01 11:40:24;;;;;;;5.05;1.40;;;23.30;99.90;;;;;;5060244;28;20056;-67
2021/10/01 11:42:57;;;;;;;2.40;1.20;;;23.40;99.90;;;;;;5063370;28;20484;-67
2021/10/01 11:45:26;;;;;;;2.00;1.17;;;23.40;99.90;;;;;;5069851;28;20041;-68
2021/10/01 11:47:58;;;;;;;3.60;1.27;;;23.50;99.90;;;;;;5067428;28;20044;-68
2021/10/01 11:50:39;;;;;;;4.03;1.60;;;23.80;99.90;;;;;;5067319;28;20051;-68
2021/10/01 11:53:25;;;;;;;3.58;1.20;;;24.10;99.90;;;;;;5054965;28;20403;-67
2021/10/01 11:56:01;;;;;;;4.10;1.23;;;23.90;99.90;;;;;;5081841;28;20063;-67
2021/10/01 11:58:30;;;;;;;2.30;1.00;;;23.70;99.90;;;;;;5076710;28;20543;-67
2021/10/01 12:01:17;;;;;;;5.88;1.30;;;23.60;99.90;;;;;;5086471;28;20048;-66
2021/10/01 12:03:54;;;;;;;3.30;1.20;;;23.90;99.90;;;;;;5086641;28;20040;-68
2021/10/01 12:06:26;;;;;;;4.25;1.10;;;24.30;99.90;;;;;;5089522;28;20048;-68
2021/10/01 12:08:55;;;;;;;2.20;0.95;;;24.60;99.90;;;;;;5082041;28;20483;-68
2021/10/01 12:11:31;;;;;;;3.75;1.25;;;24.50;99.90;;;;;;5084950;28;20148;-68
2021/10/01 12:14:19;;;;;;;3.10;1.10;;;24.50;99.90;;;;;;5088245;28;20040;-68
2021/10/01 12:17:12;;;;;;;2.20;1.00;;;24.60;99.90;;;;;;5079194;28;20140;-68
2021/10/01 12:19:40;;;;;;;4.88;1.10;;;24.70;99.90;;;;;;5056973;28;20135;-68
2021/10/01 12:22:10;;;;;;;3.40;1.02;;;24.60;99.90;;;;;;5083603;28;20429;-68
2021/10/01 12:24:56;;;;;;;2.55;1.00;;;25.00;99.90;;;;;;5083535;28;20036;-68
2021/10/01 12:27:43;;;;;;;2.53;1.10;;;25.60;99.90;;;;;;5072152;28;20415;-68
2021/10/01 12:30:11;;;;;;;4.68;1.00;;;26.00;99.90;;;;;;5078781;28;20089;-68
2021/10/01 12:32:40;;;;;;;2.15;1.20;;;26.20;99.90;;;;;;5075862;28;20115;-67
2021/10/01 12:35:11;;;;;;;2.85;1.27;;;26.00;99.90;;;;;;5072305;28;20127;-68
2021/10/01 12:37:41;;;;;;;3.45;1.50;;;26.60;99.90;;;;;;5067927;28;20036;-68
2021/10/01 12:40:10;;;;;;;4.93;1.40;;;27.60;99.80;;;;;;5067607;28;20044;-68
2021/10/01 12:42:39;;;;;;;2.63;1.20;;;29.30;98.10;;;;;;5073017;28;20036;-68
2021/10/01 12:45:13;;;;;;;2.47;1.20;;;30.60;95.40;;;;;;5064059;28;20045;-69
2021/10/01 12:47:43;;;;;;;3.38;1.40;;;32.10;92.40;;;;;;5070239;28;20044;-68
2021/10/01 12:50:16;;;;;;;3.08;0.98;;;33.10;88.70;;;;;;5050481;28;20056;-68
2021/10/01 12:52:54;;;;;;;4.30;1.20;;;34.10;84.00;;;;;;5066175;28;20048;-68
2021/10/01 12:55:22;;;;;;;4.25;1.50;;;34.80;78.00;;;;;;5062281;28;20044;-69
2021/10/01 12:57:51;;;;;;;2.47;1.13;;;34.80;76.10;;;;;;5074019;28;20048;-67
2021/10/01 13:00:24;;;;;;;1.98;1.02;;;35.70;73.40;;;;;;5088553;28;20046;-69
2021/10/01 13:03:01;;;;;;;4.07;1.38;;;35.40;71.20;;;;;;5083064;28;20223;-67
2021/10/01 13:05:39;;;;;;;2.75;1.20;;;35.90;70.30;;;;;;5061889;28;20041;-69
2021/10/01 13:08:10;;;;;;;4.40;1.42;;;37.10;67.70;;;;;;5076572;28;20423;-67
2021/10/01 13:11:01;;;;;;;2.90;1.15;;;37.80;66.10;;;;;;5066068;28;20821;-67
2021/10/01 13:13:33;;;;;;;2.40;1.00;;;38.30;64.30;;;;;;5072186;28;20378;-68
2021/10/01 13:16:13;;;;;;;2.58;0.70;;;38.90;62.50;;;;;;5071991;28;20043;-67
2021/10/01 13:18:43;;;;;;;4.03;1.35;;;39.20;61.40;;;;;;5045962;28;20143;-67
2021/10/01 13:21:15;;;;;;;2.40;0.90;;;38.50;58.40;;;;;;5082769;28;20051;-67
2021/10/01 13:23:53;;;;;;;2.22;1.02;;;38.50;57.90;;;;;;5081373;28;20139;-67
2021/10/01 13:26:26;;;;;;;3.10;1.27;;;39.00;56.70;;;;;;5067932;28;20037;-68
2021/10/01 13:29:01;;;;;;;3.15;1.25;;;39.70;57.50;;;;;;5075221;28;20040;-68
2021/10/01 13:31:41;;;;;;;3.00;1.45;;;41.20;56.30;;;;;;5070482;28;20040;-67
2021/10/01 13:34:11;;;;;;;2.25;0.80;;;40.40;54.80;;;;;;5077420;28;20438;-67
2021/10/01 13:36:39;;;;;;;1.65;0.80;;;38.40;54.70;;;;;;5076031;28;20045;-67
2021/10/01 13:39:07;;;;;;;3.00;1.00;;;38.50;55.60;;;;;;5083401;28;20052;-67
2021/10/01 13:41:35;;;;;;;4.97;0.90;;;38.40;56.00;;;;;;5064536;28;20040;-68
2021/10/01 13:44:02;;;;;;;3.47;0.90;;;39.10;55.80;;;;;;5086804;28;20568;-68
2021/10/01 13:46:30;;;;;;;1.75;0.88;;;39.70;55.30;;;;;;5077794;28;20131;-68
2021/10/01 13:48:57;;;;;;;2.10;0.77;;;40.40;54.80;;;;;;5070493;28;20168;-68
2021/10/01 13:51:24;;;;;;;3.28;1.02;;;41.00;54.00;;;;;;5064772;28;20486;-68
2021/10/01 13:53:52;;;;;;;3.85;0.90;;;41.20;52.60;;;;;;5057605;28;20102;-68
2021/10/01 13:56:19;;;;;;;1.20;0.80;;;40.40;52.10;;;;;;5079450;28;20483;-68
2021/10/01 13:58:47;;;;;;;1.77;0.70;;;40.30;52.60;;;;;;5086129;28;20040;-68
2021/10/01 14:01:15;;;;;;;2.00;0.93;;;40.20;53.00;;;;;;5076777;28;20041;-68
2021/10/01 14:03:43;;;;;;;1.05;0.70;;;39.70;52.70;;;;;;5065108;28;20047;-68
2021/10/01 14:06:11;;;;;;;3.08;0.85;;;39.50;53.50;;;;;;5070127;28;20472;-68
2021/10/01 14:08:38;;;;;;;1.33;0.70;;;40.10;52.50;;;;;;5064938;28;20079;-68
2021/10/01 14:11:26;;;;;;;3.65;1.00;;;39.70;52.80;;;;;;5079035;28;20435;-68
2021/10/01 14:13:55;;;;;;;2.10;0.90;;;40.40;52.70;;;;;;5066635;28;20045;-68
2021/10/01 14:16:23;;;;;;;1.98;1.05;;;40.80;52.30;;;;;;5064773;28;20489;-68
2021/10/01 14:18:51;;;;;;;2.72;1.00;;;40.90;52.00;;;;;;5077605;28;20454;-68
2021/10/01 14:21:22;;;;;;;2.17;1.00;;;40.40;51.90;;;;;;5067956;28;20505;-68
2021/10/01 14:23:50;;;;;;;2.47;1.70;;;40.10;52.00;;;;;;5070996;28;20442;-68
2021/10/01 14:26:18;;;;;;;5.05;3.13;;;40.50;52.10;;;;;;5046105;28;20397;-68
2021/10/01 14:28:45;;;;;;;4.57;0.85;;;40.30;51.40;;;;;;5066780;28;20036;-68
2021/10/01 14:31:12;;;;;;;3.70;0.98;;;39.50;51.70;;;;;;5068378;28;20048;-68
2021/10/01 14:33:40;;;;;;;1.65;0.80;;;39.00;52.20;;;;;;5074079;28;20426;-68
2021/10/01 14:36:07;;;;;;;2.42;0.80;;;38.90;51.60;;;;;;5051098;28;20502;-68
2021/10/01 14:38:35;;;;;;;1.70;1.08;;;38.20;52.40;;;;;;5076142;28;20117;-66
2021/10/01 14:41:03;;;;;;;5.05;1.42;;;38.00;52.70;;;;;;5081606;28;20036;-67
2021/10/01 14:43:32;;;;;;;2.60;1.20;;;37.50;52.90;;;;;;5077174;28;20063;-67
2021/10/01 14:46:01;;;;;;;3.30;1.00;;;36.40;53.90;;;;;;5065467;28;20064;-67
2021/10/01 14:48:30;;;;;;;2.20;0.90;;;35.80;54.90;;;;;;5074459;28;20110;-67
2021/10/01 14:50:59;;;;;;;2.50;0.80;;;35.70;55.10;;;;;;5067989;28;20040;-67